createdAt,value
2018-03-21T00:01:11.285Z,0.33
2018-03-21T00:03:38.841Z,0.17
2018-03-21T00:06:06.305Z,0.02
2018-03-21T00:08:33.759Z,-0.08
2018-03-21T00:11:01.228Z,-0.25
2018-03-21T00:13:28.699Z,-0.38
2018-03-21T00:15:56.141Z,-0.43
2018-03-21T00:18:23.591Z,-0.54
2018-03-21T00:20:51.054Z,-0.66
2018-03-21T00:23:18.502Z,-0.74
2018-03-21T00:25:45.957Z,-0.78
2018-03-21T00:28:13.435Z,-0.87
2018-03-21T00:30:40.887Z,-0.91
2018-03-21T00:33:08.346Z,-0.90
2018-03-21T00:35:35.813Z,-0.95
2018-03-21T00:38:03.258Z,-1.03
2018-03-21T00:40:30.739Z,-1.07
2018-03-21T00:42:58.173Z,-1.07
2018-03-21T00:45:25.618Z,-1.10
2018-03-21T00:47:53.061Z,-1.16
2018-03-21T00:50:20.546Z,-1.15
2018-03-21T00:52:48.083Z,-1.21
2018-03-21T00:55:15.532Z,-1.28
2018-03-21T00:57:42.997Z,-1.28
2018-03-21T01:00:10.453Z,-1.31
2018-03-21T01:02:38.015Z,-1.41
2018-03-21T01:05:05.470Z,-1.45
2018-03-21T01:07:33.007Z,-1.52
2018-03-21T01:10:00.492Z,-1.55
2018-03-21T01:12:27.929Z,-1.58
2018-03-21T01:14:55.382Z,-1.56
2018-03-21T01:17:22.916Z,-1.61
2018-03-21T01:19:56.414Z,-1.61
2018-03-21T01:22:24.296Z,-1.68
2018-03-21T01:24:51.752Z,-1.70
2018-03-21T01:27:19.203Z,-1.66
2018-03-21T01:29:46.644Z,-1.78
2018-03-21T01:32:14.089Z,-1.82
2018-03-21T01:34:41.661Z,-1.87
2018-03-21T01:37:09.177Z,-2.00
2018-03-21T01:39:36.631Z,-2.06
2018-03-21T01:42:05.194Z,-2.10
2018-03-21T01:44:32.651Z,-2.13
2018-03-21T01:47:00.138Z,-2.19
2018-03-21T01:49:27.585Z,-2.26
2018-03-21T01:51:55.074Z,-2.28
2018-03-21T01:54:23.266Z,-2.32
2018-03-21T01:56:50.724Z,-2.31
2018-03-21T01:59:18.197Z,-2.40
2018-03-21T02:01:45.643Z,-2.40
2018-03-21T02:04:13.144Z,-2.38
2018-03-21T02:06:40.613Z,-2.43
2018-03-21T02:09:08.134Z,-2.45
2018-03-21T02:11:35.574Z,-2.49
2018-03-21T02:14:03.033Z,-2.51
2018-03-21T02:16:30.484Z,-2.51
2018-03-21T02:18:57.934Z,-2.57
2018-03-21T02:21:25.373Z,-2.60
2018-03-21T02:23:52.832Z,-2.63
2018-03-21T02:26:20.277Z,-2.63
2018-03-21T02:28:48.161Z,-2.67
2018-03-21T02:31:15.634Z,-2.68
2018-03-21T02:33:43.090Z,-2.67
2018-03-21T02:36:10.586Z,-2.69
2018-03-21T02:38:38.035Z,-2.68
2018-03-21T02:41:05.500Z,-2.74
2018-03-21T02:43:32.968Z,-2.74
2018-03-21T02:46:00.422Z,-2.70
2018-03-21T02:48:27.897Z,-2.74
2018-03-21T02:50:55.340Z,-2.82
2018-03-21T02:53:22.793Z,-2.81
2018-03-21T02:55:50.247Z,-2.87
2018-03-21T02:58:17.710Z,-2.82
2018-03-21T03:00:45.163Z,-2.86
2018-03-21T03:03:12.810Z,-2.86
2018-03-21T03:05:40.264Z,-2.81
2018-03-21T03:08:07.709Z,-2.78
2018-03-21T03:10:35.229Z,-2.73
2018-03-21T03:13:02.681Z,-2.75
2018-03-21T03:15:30.171Z,-2.77
2018-03-21T03:17:57.619Z,-2.81
2018-03-21T03:20:25.072Z,-2.82
2018-03-21T03:22:52.528Z,-2.80
2018-03-21T03:25:20.034Z,-2.81
2018-03-21T03:27:47.491Z,-2.86
2018-03-21T03:30:14.956Z,-2.89
2018-03-21T03:32:42.469Z,-2.96
2018-03-21T03:35:09.918Z,-2.95
2018-03-21T03:37:37.395Z,-2.98
2018-03-21T03:40:04.834Z,-2.99
2018-03-21T03:42:32.286Z,-2.99
2018-03-21T03:44:59.796Z,-3.03
2018-03-21T03:47:27.271Z,-3.08
2018-03-21T03:49:54.740Z,-3.11
2018-03-21T03:52:22.210Z,-3.05
2018-03-21T03:54:49.701Z,-3.11
2018-03-21T03:57:17.151Z,-3.16
2018-03-21T03:59:44.604Z,-3.15
2018-03-21T04:02:12.058Z,-3.19
2018-03-21T04:04:39.530Z,-3.14
2018-03-21T04:07:06.984Z,-3.18
2018-03-21T04:09:34.485Z,-3.26
2018-03-21T04:12:01.936Z,-3.25
2018-03-21T04:14:29.418Z,-3.29
2018-03-21T04:16:56.933Z,-3.30
2018-03-21T04:19:24.393Z,-3.32
2018-03-21T04:21:51.883Z,-3.28
2018-03-21T04:24:19.335Z,-3.26
2018-03-21T04:26:46.798Z,-3.27
2018-03-21T04:29:14.255Z,-3.31
2018-03-21T04:31:41.731Z,-3.27
2018-03-21T04:34:09.203Z,-3.26
2018-03-21T04:36:36.786Z,-3.32
2018-03-21T04:39:04.278Z,-3.34
2018-03-21T04:41:31.726Z,-3.31
2018-03-21T04:43:59.174Z,-3.27
2018-03-21T04:46:27.967Z,-3.15
2018-03-21T04:48:55.416Z,-3.11
2018-03-21T04:51:22.856Z,-3.12
2018-03-21T04:53:50.310Z,-3.12
2018-03-21T04:56:17.758Z,-3.22
2018-03-21T04:58:45.252Z,-3.28
2018-03-21T05:01:12.706Z,-3.37
2018-03-21T05:03:40.202Z,-3.36
2018-03-21T05:06:07.650Z,-3.37
2018-03-21T05:08:35.121Z,-3.39
2018-03-21T05:11:02.938Z,-3.40
2018-03-21T05:13:30.541Z,-3.37
2018-03-21T05:15:58.218Z,-3.42
2018-03-21T05:18:25.794Z,-3.40
2018-03-21T05:20:53.266Z,-3.40
2018-03-21T05:23:20.711Z,-3.38
2018-03-21T05:25:48.170Z,-3.38
2018-03-21T05:28:15.616Z,-3.34
2018-03-21T05:30:43.092Z,-3.27
2018-03-21T05:33:10.529Z,-3.22
2018-03-21T05:35:37.994Z,-3.22
2018-03-21T05:38:05.446Z,-3.19
2018-03-21T05:40:32.897Z,-3.17
2018-03-21T05:43:00.362Z,-3.21
2018-03-21T05:45:27.851Z,-3.14
2018-03-21T05:47:55.326Z,-3.14
2018-03-21T05:50:22.791Z,-3.13
2018-03-21T05:52:50.277Z,-3.10
2018-03-21T05:55:18.678Z,-3.02
2018-03-21T05:57:46.130Z,-2.91
2018-03-21T06:00:13.576Z,-2.77
2018-03-21T06:02:41.627Z,-2.65
2018-03-21T06:05:09.274Z,-2.55
2018-03-21T06:07:36.742Z,-2.41
2018-03-21T06:10:04.204Z,-2.35
2018-03-21T06:12:31.666Z,-2.26
2018-03-21T06:14:59.152Z,-2.19
2018-03-21T06:17:26.588Z,-2.15
2018-03-21T06:19:54.046Z,-2.04
2018-03-21T06:22:21.494Z,-1.98
2018-03-21T06:24:48.996Z,-1.94
2018-03-21T06:27:16.741Z,-1.84
2018-03-21T06:29:44.186Z,-1.90
2018-03-21T06:32:11.714Z,-1.72
2018-03-21T06:34:39.163Z,-1.68
2018-03-21T06:37:07.665Z,-1.60
2018-03-21T06:39:35.317Z,-1.51
2018-03-21T06:42:02.784Z,-1.40
2018-03-21T06:44:30.356Z,-1.27
2018-03-21T06:46:57.824Z,-1.13
2018-03-21T06:49:25.269Z,-1.02
2018-03-21T06:51:52.720Z,-0.94
2018-03-21T06:54:20.173Z,-0.79
2018-03-21T06:56:47.625Z,-0.73
2018-03-21T06:59:15.094Z,-0.69
2018-03-21T07:01:42.559Z,-0.62
2018-03-21T07:04:10.005Z,-0.56
2018-03-21T07:06:37.469Z,-0.55
2018-03-21T07:09:04.929Z,-0.50
2018-03-21T07:11:32.390Z,-0.49
2018-03-21T07:14:13.205Z,-0.35
2018-03-21T07:16:50.982Z,-0.21
2018-03-21T07:19:18.510Z,0.04
2018-03-21T07:21:46.122Z,0.16
2018-03-21T07:24:13.584Z,0.33
2018-03-21T07:26:41.032Z,0.43
2018-03-21T07:29:08.575Z,0.70
2018-03-21T07:31:36.039Z,0.72
2018-03-21T07:34:03.493Z,0.86
2018-03-21T07:36:30.971Z,1.01
2018-03-21T07:38:58.409Z,1.03
2018-03-21T07:41:25.862Z,1.14
2018-03-21T07:43:53.322Z,1.15
2018-03-21T07:46:20.765Z,1.38
2018-03-21T07:48:48.214Z,1.29
2018-03-21T07:51:15.665Z,1.50
2018-03-21T07:53:43.117Z,1.57
2018-03-21T07:56:10.562Z,1.82
2018-03-21T07:58:38.013Z,1.79
2018-03-21T08:01:05.454Z,2.00
2018-03-21T08:03:32.917Z,2.21
2018-03-21T08:06:00.381Z,2.22
2018-03-21T08:08:34.061Z,2.35
2018-03-21T08:11:01.573Z,2.39
2018-03-21T08:13:29.030Z,2.46
2018-03-21T08:15:56.487Z,2.61
2018-03-21T08:18:23.950Z,2.62
2018-03-21T08:20:51.637Z,2.84
2018-03-21T08:23:19.124Z,2.68
2018-03-21T08:25:46.602Z,2.49
2018-03-21T08:28:14.054Z,2.76
2018-03-21T08:30:41.533Z,3.01
2018-03-21T08:33:09.013Z,2.97
2018-03-21T08:35:36.450Z,3.04
2018-03-21T08:38:03.936Z,3.18
2018-03-21T08:40:31.449Z,3.39
2018-03-21T08:42:58.894Z,3.42
2018-03-21T08:45:26.331Z,3.60
2018-03-21T08:47:53.809Z,3.91
2018-03-21T08:50:21.277Z,4.12
2018-03-21T08:52:48.738Z,4.10
2018-03-21T08:55:16.211Z,4.20
2018-03-21T08:57:43.652Z,4.27
2018-03-21T09:00:11.090Z,4.58
2018-03-21T09:02:38.555Z,4.30
2018-03-21T09:05:06.017Z,4.53
2018-03-21T09:07:33.471Z,4.83
2018-03-21T09:10:00.920Z,5.13
2018-03-21T09:12:28.378Z,5.38
2018-03-21T09:14:55.825Z,5.59
2018-03-21T09:17:23.271Z,5.67
2018-03-21T09:19:50.712Z,6.11
2018-03-21T09:22:18.181Z,6.33
2018-03-21T09:24:45.610Z,6.67
2018-03-21T09:27:13.052Z,6.92
2018-03-21T09:29:40.497Z,6.92
2018-03-21T09:32:07.970Z,6.67
2018-03-21T09:34:35.463Z,6.50
2018-03-21T09:37:02.898Z,6.91
2018-03-21T09:39:30.411Z,6.70
2018-03-21T09:41:57.874Z,6.89
2018-03-21T09:44:25.377Z,6.88
2018-03-21T09:46:52.789Z,7.21
2018-03-21T09:49:20.236Z,7.13
2018-03-21T09:51:47.694Z,6.91
2018-03-21T09:54:15.167Z,6.70
2018-03-21T09:56:42.630Z,6.58
2018-03-21T09:59:10.165Z,6.20
2018-03-21T10:01:37.637Z,6.25
2018-03-21T10:04:05.090Z,6.55
2018-03-21T10:06:32.575Z,6.79
2018-03-21T10:09:00.054Z,6.99
2018-03-21T10:11:27.484Z,6.77
2018-03-21T10:13:54.929Z,7.47
2018-03-21T10:16:22.375Z,7.18
2018-03-21T10:18:49.824Z,6.80
2018-03-21T10:21:17.302Z,7.67
2018-03-21T10:23:44.749Z,7.51
2018-03-21T10:26:12.276Z,7.27
2018-03-21T10:28:39.744Z,7.99
2018-03-21T10:31:07.271Z,7.96
2018-03-21T10:33:34.717Z,8.06
2018-03-21T10:36:02.218Z,7.99
2018-03-21T10:38:29.700Z,7.85
2018-03-21T10:40:57.214Z,7.68
2018-03-21T10:43:24.702Z,7.82
2018-03-21T10:45:52.155Z,7.96
2018-03-21T10:48:19.650Z,7.89
2018-03-21T10:50:47.117Z,8.10
2018-03-21T10:53:14.606Z,8.21
2018-03-21T10:55:43.909Z,7.06
2018-03-21T10:58:13.179Z,6.90
2018-03-21T11:00:42.902Z,6.42
2018-03-21T11:03:12.213Z,6.44
2018-03-21T11:05:39.671Z,6.96
2018-03-21T11:08:07.149Z,6.93
2018-03-21T11:10:34.858Z,7.52
2018-03-21T11:13:02.316Z,7.55
2018-03-21T11:15:29.773Z,7.24
2018-03-21T11:17:57.256Z,7.28
2018-03-21T11:20:24.701Z,6.88
2018-03-21T11:22:52.153Z,7.41
2018-03-21T11:25:19.846Z,7.89
2018-03-21T11:27:47.289Z,8.01
2018-03-21T11:30:14.752Z,8.26
2018-03-21T11:32:42.253Z,8.68
2018-03-21T11:35:09.725Z,8.38
2018-03-21T11:37:37.173Z,9.05
2018-03-21T11:40:04.623Z,9.24
2018-03-21T11:42:32.080Z,9.63
2018-03-21T11:44:59.556Z,9.92
2018-03-21T11:47:27.010Z,9.87
2018-03-21T11:49:54.493Z,9.73
2018-03-21T11:52:21.995Z,9.41
2018-03-21T11:54:49.478Z,9.90
2018-03-21T11:57:17.041Z,10.20
2018-03-21T11:59:44.494Z,10.14
2018-03-21T12:02:12.004Z,8.99
2018-03-21T12:04:39.479Z,9.46
2018-03-21T12:07:06.962Z,10.23
2018-03-21T12:09:34.547Z,11.73
2018-03-21T12:12:02.001Z,13.21
2018-03-21T12:14:29.466Z,14.67
2018-03-21T12:16:56.906Z,14.58
2018-03-21T12:19:24.343Z,16.04
2018-03-21T12:21:51.794Z,15.26
2018-03-21T12:24:19.291Z,15.02
2018-03-21T12:26:46.755Z,16.54
2018-03-21T12:29:20.585Z,16.75
2018-03-21T12:31:48.073Z,13.86
2018-03-21T12:34:15.563Z,15.43
2018-03-21T12:36:43.013Z,15.07
2018-03-21T12:39:10.463Z,16.49
2018-03-21T12:41:37.915Z,18.68
2018-03-21T12:44:05.378Z,19.89
2018-03-21T12:46:32.835Z,20.28
2018-03-21T12:49:00.331Z,20.41
2018-03-21T12:51:27.777Z,20.64
2018-03-21T12:53:55.236Z,19.88
2018-03-21T12:56:22.764Z,16.68
2018-03-21T12:58:50.126Z,14.34
2018-03-21T13:01:17.801Z,13.54
2018-03-21T13:03:45.233Z,12.27
2018-03-21T13:06:12.965Z,11.41
2018-03-21T13:08:40.487Z,14.86
2018-03-21T13:11:08.114Z,18.48
2018-03-21T13:13:35.617Z,18.78
2018-03-21T13:16:03.071Z,19.67
2018-03-21T13:18:32.549Z,21.92
2018-03-21T13:21:00.023Z,19.67
2018-03-21T13:23:27.489Z,19.34
2018-03-21T13:25:54.933Z,22.82
2018-03-21T13:28:22.382Z,23.67
2018-03-21T13:30:49.858Z,25.04
2018-03-21T13:33:17.334Z,25.20
2018-03-21T13:35:45.618Z,27.90
2018-03-21T13:38:13.276Z,26.74
2018-03-21T13:40:41.643Z,25.77
2018-03-21T13:43:09.358Z,25.01
2018-03-21T13:45:36.885Z,26.18
2018-03-21T13:48:04.321Z,25.81
2018-03-21T13:50:34.222Z,26.73
2018-03-21T13:53:01.695Z,28.38
2018-03-21T13:55:29.137Z,28.36
2018-03-21T13:57:56.656Z,27.92
2018-03-21T14:00:24.336Z,28.26
2018-03-21T14:02:51.770Z,28.35
2018-03-21T14:05:19.376Z,29.32
2018-03-21T14:07:46.851Z,27.63
2018-03-21T14:10:14.357Z,27.06
2018-03-21T14:12:41.799Z,28.71
2018-03-21T14:15:09.574Z,27.49
2018-03-21T14:17:37.036Z,28.42
2018-03-21T14:20:04.506Z,28.17
2018-03-21T14:22:32.034Z,28.08
2018-03-21T14:24:59.509Z,27.64
2018-03-21T14:27:26.968Z,28.78
2018-03-21T14:29:54.458Z,26.95
2018-03-21T14:32:21.907Z,26.48
2018-03-21T14:34:49.506Z,24.17
2018-03-21T14:37:16.958Z,25.64
2018-03-21T14:39:44.423Z,26.12
2018-03-21T14:42:11.929Z,25.55
2018-03-21T14:44:39.406Z,24.89
2018-03-21T14:47:06.839Z,25.00
2018-03-21T14:49:34.353Z,24.21
2018-03-21T14:52:01.764Z,23.56
2018-03-21T14:54:29.194Z,24.34
2018-03-21T14:56:56.649Z,25.98
2018-03-21T14:59:24.079Z,24.82
2018-03-21T15:01:51.528Z,25.50
2018-03-21T15:04:18.989Z,25.59
2018-03-21T15:06:46.464Z,23.15
2018-03-21T15:09:13.929Z,21.51
2018-03-21T15:11:41.390Z,21.90
2018-03-21T15:14:08.816Z,21.10
2018-03-21T15:16:36.276Z,20.23
2018-03-21T15:19:03.741Z,21.37
2018-03-21T15:21:31.186Z,22.39
2018-03-21T15:23:58.628Z,23.71
2018-03-21T15:26:26.103Z,23.40
2018-03-21T15:28:53.564Z,25.16
2018-03-21T15:31:21.894Z,25.20
2018-03-21T15:33:49.398Z,23.99
2018-03-21T15:36:16.855Z,24.14
2018-03-21T15:38:44.310Z,24.29
2018-03-21T15:41:11.759Z,24.89
2018-03-21T15:43:39.221Z,22.72
2018-03-21T15:46:06.727Z,23.05
2018-03-21T15:48:34.168Z,23.21
2018-03-21T15:51:01.598Z,24.90
2018-03-21T15:53:29.045Z,22.14
2018-03-21T15:55:56.477Z,22.65
2018-03-21T15:58:23.947Z,21.33
2018-03-21T16:00:51.400Z,21.64
2018-03-21T16:03:18.873Z,18.42
2018-03-21T16:05:46.322Z,18.19
2018-03-21T16:08:13.833Z,19.31
2018-03-21T16:10:41.273Z,21.11
2018-03-21T16:13:08.712Z,21.81
2018-03-21T16:15:36.154Z,20.94
2018-03-21T16:18:03.627Z,22.12
2018-03-21T16:20:31.065Z,18.75
2018-03-21T16:22:58.507Z,19.16
2018-03-21T16:25:25.940Z,19.27
2018-03-21T16:27:53.395Z,18.19
2018-03-21T16:30:20.858Z,19.99
2018-03-21T16:32:48.404Z,20.49
2018-03-21T16:35:15.847Z,20.19
2018-03-21T16:37:43.302Z,20.42
2018-03-21T16:40:10.769Z,19.88
2018-03-21T16:42:38.215Z,19.00
2018-03-21T16:45:05.653Z,19.66
2018-03-21T16:47:33.111Z,18.24
2018-03-21T16:50:00.585Z,18.05
2018-03-21T16:52:28.030Z,17.77
2018-03-21T16:54:55.539Z,17.75
2018-03-21T16:57:22.974Z,16.03
2018-03-21T16:59:50.425Z,14.74
2018-03-21T17:02:17.864Z,11.68
2018-03-21T17:04:45.333Z,10.10
2018-03-21T17:07:12.787Z,9.32
2018-03-21T17:09:40.273Z,8.55
2018-03-21T17:12:07.700Z,8.09
2018-03-21T17:14:35.175Z,7.80
2018-03-21T17:17:02.668Z,7.24
2018-03-21T17:19:30.134Z,6.59
2018-03-21T17:21:57.693Z,6.36
2018-03-21T17:24:25.247Z,6.03
2018-03-21T17:26:52.642Z,5.98
2018-03-21T17:29:20.111Z,5.68
2018-03-21T17:31:47.719Z,5.37
2018-03-21T17:34:15.175Z,5.10
2018-03-21T17:36:42.654Z,4.78
2018-03-21T17:39:10.094Z,4.48
2018-03-21T17:41:37.562Z,4.27
2018-03-21T17:44:05.110Z,4.08
2018-03-21T17:46:32.574Z,3.90
2018-03-21T17:49:00.053Z,3.69
2018-03-21T17:51:27.514Z,3.47
2018-03-21T17:53:54.953Z,3.31
2018-03-21T17:56:22.426Z,3.14
2018-03-21T17:58:49.916Z,3.01
2018-03-21T18:01:17.355Z,2.85
2018-03-21T18:03:44.790Z,2.70
2018-03-21T18:06:12.242Z,2.57
2018-03-21T18:08:39.728Z,2.46
2018-03-21T18:11:07.194Z,2.36
2018-03-21T18:13:34.634Z,2.25
2018-03-21T18:16:02.114Z,2.12
2018-03-21T18:18:29.567Z,2.03
2018-03-21T18:20:57.033Z,1.97
2018-03-21T18:23:26.018Z,1.98
2018-03-21T18:25:53.748Z,1.91
2018-03-21T18:28:21.214Z,1.81
2018-03-21T18:30:48.661Z,1.65
2018-03-21T18:33:16.153Z,1.58
2018-03-21T18:35:44.408Z,1.49
2018-03-21T18:38:11.900Z,1.40
2018-03-21T18:40:40.175Z,1.28
2018-03-21T18:43:07.836Z,1.20
2018-03-21T18:45:35.309Z,1.17
2018-03-21T18:48:02.750Z,1.15
2018-03-21T18:50:30.711Z,1.12
2018-03-21T18:52:58.148Z,1.05
2018-03-21T18:55:25.653Z,0.96
2018-03-21T18:57:53.108Z,0.90
2018-03-21T19:00:20.568Z,0.86
2018-03-21T19:02:48.020Z,0.80
2018-03-21T19:05:15.643Z,0.76
2018-03-21T19:07:43.122Z,0.74
2018-03-21T19:10:10.707Z,0.72
2018-03-21T19:12:39.256Z,0.70
2018-03-21T19:15:06.729Z,0.67
2018-03-21T19:17:34.216Z,0.85
2018-03-21T19:20:01.711Z,0.90
2018-03-21T19:22:29.461Z,0.90
2018-03-21T19:24:56.924Z,0.85
2018-03-21T19:27:25.472Z,0.85
2018-03-21T19:29:52.941Z,0.87
2018-03-21T19:32:20.403Z,0.78
2018-03-21T19:34:47.882Z,0.78
2018-03-21T19:37:15.339Z,0.72
2018-03-21T19:39:42.927Z,0.69
2018-03-21T19:42:10.345Z,0.68
2018-03-21T19:44:37.962Z,0.66
2018-03-21T19:47:05.459Z,0.62
2018-03-21T19:49:33.055Z,0.53
2018-03-21T19:52:00.592Z,0.47
2018-03-21T19:54:28.601Z,0.35
2018-03-21T19:56:56.068Z,0.27
2018-03-21T19:59:23.579Z,0.24
2018-03-21T20:01:51.057Z,0.21
2018-03-21T20:04:22.231Z,0.24
2018-03-21T20:06:49.724Z,0.21
2018-03-21T20:09:17.292Z,0.25
2018-03-21T20:11:44.758Z,0.17
2018-03-21T20:14:12.217Z,0.10
2018-03-21T20:16:39.687Z,0.07
2018-03-21T20:19:07.145Z,0.03
2018-03-21T20:21:34.595Z,-0.04
2018-03-21T20:24:02.052Z,-0.12
2018-03-21T20:26:29.720Z,-0.11
2018-03-21T20:28:57.176Z,-0.11
2018-03-21T20:31:24.650Z,-0.15
2018-03-21T20:33:52.110Z,-0.20
2018-03-21T20:36:19.575Z,-0.19
2018-03-21T20:38:47.094Z,-0.26
2018-03-21T20:41:14.850Z,-0.27
2018-03-21T20:43:42.315Z,-0.28
2018-03-21T20:46:10.206Z,-0.34
2018-03-21T20:48:37.691Z,-0.33
2018-03-21T20:51:05.142Z,-0.36
2018-03-21T20:53:32.638Z,-0.40
2018-03-21T20:56:00.107Z,-0.42
2018-03-21T20:58:27.607Z,-0.47
2018-03-21T21:00:55.103Z,-0.57
2018-03-21T21:03:22.605Z,-0.63
2018-03-21T21:05:50.058Z,-0.71
2018-03-21T21:08:17.503Z,-0.67
2018-03-21T21:10:44.963Z,-0.70
2018-03-21T21:13:12.447Z,-0.72
2018-03-21T21:15:39.885Z,-0.70
2018-03-21T21:18:07.346Z,-0.70
2018-03-21T21:20:34.796Z,-0.72
2018-03-21T21:23:03.009Z,-0.71
2018-03-21T21:25:30.571Z,-0.73
2018-03-21T21:27:58.092Z,-0.76
2018-03-21T21:30:25.579Z,-0.77
2018-03-21T21:32:53.167Z,-0.84
2018-03-21T21:35:20.726Z,-0.90
2018-03-21T21:37:49.236Z,-0.88
2018-03-21T21:40:16.691Z,-0.90
2018-03-21T21:42:44.149Z,-0.95
2018-03-21T21:45:11.614Z,-0.95
2018-03-21T21:47:39.053Z,-0.97
2018-03-21T21:50:06.510Z,-1.03
2018-03-21T21:52:34.008Z,-1.07
2018-03-21T21:55:01.451Z,-1.11
2018-03-21T21:57:28.923Z,-1.14
2018-03-21T21:59:56.402Z,-1.17
2018-03-21T22:02:23.842Z,-1.22
2018-03-21T22:04:51.272Z,-1.22
2018-03-21T22:07:18.881Z,-1.26
2018-03-21T22:09:46.363Z,-1.29
2018-03-21T22:12:29.484Z,-1.28
2018-03-21T22:14:56.917Z,-1.32
2018-03-21T22:17:24.424Z,-1.39
2018-03-21T22:19:51.863Z,-1.39
2018-03-21T22:22:19.349Z,-1.45
2018-03-21T22:24:46.837Z,-1.41
2018-03-21T22:27:14.354Z,-1.44
2018-03-21T22:29:41.938Z,-1.54
2018-03-21T22:32:09.370Z,-1.56
2018-03-21T22:34:36.896Z,-1.63
2018-03-21T22:37:04.370Z,-1.67
2018-03-21T22:39:31.842Z,-1.69
2018-03-21T22:42:05.818Z,-1.70
2018-03-21T22:44:33.537Z,-1.73
2018-03-21T22:47:03.111Z,-1.74
2018-03-21T22:49:35.033Z,-1.73
2018-03-21T22:52:07.464Z,-1.81
2018-03-21T22:54:39.916Z,-1.84
2018-03-21T22:57:07.364Z,-1.86
2018-03-21T22:59:34.834Z,-1.89
2018-03-21T23:02:02.366Z,-2.00
2018-03-21T23:04:29.902Z,-2.11
2018-03-21T23:06:57.342Z,-2.12
2018-03-21T23:09:24.784Z,-2.17
2018-03-21T23:11:52.282Z,-2.27
2018-03-21T23:14:19.858Z,-2.28
2018-03-21T23:16:47.308Z,-2.31
2018-03-21T23:19:14.810Z,-2.29
2018-03-21T23:21:42.413Z,-2.33
2018-03-21T23:24:10.042Z,-2.38
2018-03-21T23:26:37.622Z,-2.35
2018-03-21T23:29:05.085Z,-2.29
2018-03-21T23:31:32.601Z,-2.29
2018-03-21T23:34:00.043Z,-2.27
2018-03-21T23:36:27.643Z,-2.32
2018-03-21T23:38:55.125Z,-2.33
2018-03-21T23:41:22.553Z,-2.42
2018-03-21T23:43:52.535Z,-2.48
2018-03-21T23:46:20.018Z,-2.44
2018-03-21T23:48:47.454Z,-2.48
2018-03-21T23:51:14.902Z,-2.50
2018-03-21T23:53:42.342Z,-2.51
2018-03-21T23:56:09.814Z,-2.53
2018-03-21T23:58:37.257Z,-2.54
